sensor_id;sensor_type;location;lat;lon;timestamp;P1;durP1;ratioP1;P2;durP2;ratioP2
40635;SDS011;26642;55.766;37.828;2022-09-09T00:04:09;1.67;;;0.73;;
40635;SDS011;26642;55.766;37.828;2022-09-09T00:06:46;1.17;;;0.63;;
40635;SDS011;26642;55.766;37.828;2022-09-09T00:09:16;0.75;;;0.55;;
40635;SDS011;26642;55.766;37.828;2022-09-09T00:17:43;2.70;;;0.75;;
40635;SDS011;26642;55.766;37.828;2022-09-09T00:20:33;1.33;;;0.73;;
40635;SDS011;26642;55.766;37.828;2022-09-09T00:23:47;0.60;;;0.47;;
40635;SDS011;26642;55.766;37.828;2022-09-09T00:26:14;1.38;;;0.60;;
40635;SDS011;26642;55.766;37.828;2022-09-09T00:29:22;1.13;;;0.52;;
40635;SDS011;26642;55.766;37.828;2022-09-09T00:32:16;1.02;;;0.60;;
40635;SDS011;26642;55.766;37.828;2022-09-09T00:35:44;1.25;;;0.68;;
40635;SDS011;26642;55.766;37.828;2022-09-09T00:37:44;1.35;;;0.70;;
40635;SDS011;26642;55.766;37.828;2022-09-09T00:40:24;0.95;;;0.60;;
40635;SDS011;26642;55.766;37.828;2022-09-09T00:48:27;1.83;;;0.60;;
40635;SDS011;26642;55.766;37.828;2022-09-09T00:51:06;1.75;;;0.70;;
40635;SDS011;26642;55.766;37.828;2022-09-09T00:53:59;0.88;;;0.60;;
40635;SDS011;26642;55.766;37.828;2022-09-09T00:57:28;0.60;;;0.60;;
40635;SDS011;26642;55.766;37.828;2022-09-09T01:00:17;3.50;;;0.63;;
40635;SDS011;26642;55.766;37.828;2022-09-09T01:02:48;1.20;;;0.50;;
40635;SDS011;26642;55.766;37.828;2022-09-09T01:05:29;0.85;;;0.55;;
40635;SDS011;26642;55.766;37.828;2022-09-09T01:08:05;0.57;;;0.50;;
40635;SDS011;26642;55.766;37.828;2022-09-09T01:10:53;4.35;;;0.80;;
40635;SDS011;26642;55.766;37.828;2022-09-09T01:13:32;1.00;;;0.70;;
40635;SDS011;26642;55.766;37.828;2022-09-09T01:16:07;2.05;;;0.88;;
40635;SDS011;26642;55.766;37.828;2022-09-09T01:18:39;1.42;;;0.70;;
40635;SDS011;26642;55.766;37.828;2022-09-09T01:21:14;0.63;;;0.57;;
40635;SDS011;26642;55.766;37.828;2022-09-09T01:26:52;2.00;;;0.73;;
40635;SDS011;26642;55.766;37.828;2022-09-09T01:29:24;2.50;;;0.75;;
40635;SDS011;26642;55.766;37.828;2022-09-09T01:31:58;0.77;;;0.70;;
40635;SDS011;26642;55.766;37.828;2022-09-09T01:34:47;1.35;;;0.88;;
40635;SDS011;26642;55.766;37.828;2022-09-09T01:37:15;2.80;;;1.00;;
40635;SDS011;26642;55.766;37.828;2022-09-09T01:39:42;1.45;;;1.00;;
40635;SDS011;26642;55.766;37.828;2022-09-09T01:42:14;1.40;;;0.93;;
40635;SDS011;26642;55.766;37.828;2022-09-09T01:44:42;1.70;;;0.90;;
40635;SDS011;26642;55.766;37.828;2022-09-09T01:47:08;2.58;;;1.40;;
40635;SDS011;26642;55.766;37.828;2022-09-09T01:49:46;2.03;;;1.00;;
40635;SDS011;26642;55.766;37.828;2022-09-09T01:52:20;1.08;;;0.98;;
40635;SDS011;26642;55.766;37.828;2022-09-09T01:54:46;2.05;;;1.00;;
40635;SDS011;26642;55.766;37.828;2022-09-09T01:57:18;1.60;;;1.20;;
40635;SDS011;26642;55.766;37.828;2022-09-09T02:02:36;1.50;;;1.40;;
40635;SDS011;26642;55.766;37.828;2022-09-09T02:08:26;1.83;;;1.20;;
40635;SDS011;26642;55.766;37.828;2022-09-09T02:11:06;2.03;;;1.42;;
40635;SDS011;26642;55.766;37.828;2022-09-09T02:13:44;2.42;;;1.30;;
40635;SDS011;26642;55.766;37.828;2022-09-09T02:18:49;4.90;;;1.10;;
40635;SDS011;26642;55.766;37.828;2022-09-09T02:21:29;2.28;;;1.38;;
40635;SDS011;26642;55.766;37.828;2022-09-09T02:23:58;1.92;;;1.38;;
40635;SDS011;26642;55.766;37.828;2022-09-09T02:26:32;2.93;;;1.60;;
40635;SDS011;26642;55.766;37.828;2022-09-09T02:29:05;2.10;;;1.40;;
40635;SDS011;26642;55.766;37.828;2022-09-09T02:31:36;1.38;;;1.25;;
40635;SDS011;26642;55.766;37.828;2022-09-09T02:34:08;2.88;;;1.60;;
40635;SDS011;26642;55.766;37.828;2022-09-09T02:36:36;1.42;;;1.23;;
40635;SDS011;26642;55.766;37.828;2022-09-09T02:39:06;2.05;;;1.63;;
40635;SDS011;26642;55.766;37.828;2022-09-09T02:41:36;2.85;;;1.40;;
40635;SDS011;26642;55.766;37.828;2022-09-09T02:44:05;2.30;;;1.30;;
40635;SDS011;26642;55.766;37.828;2022-09-09T02:46:49;2.95;;;1.75;;
40635;SDS011;26642;55.766;37.828;2022-09-09T02:52:57;2.08;;;1.48;;
40635;SDS011;26642;55.766;37.828;2022-09-09T02:55:41;2.63;;;1.20;;
40635;SDS011;26642;55.766;37.828;2022-09-09T02:58:16;1.45;;;1.30;;
40635;SDS011;26642;55.766;37.828;2022-09-09T03:00:51;2.38;;;1.60;;
40635;SDS011;26642;55.766;37.828;2022-09-09T03:03:19;2.58;;;1.38;;
40635;SDS011;26642;55.766;37.828;2022-09-09T03:05:49;1.33;;;1.20;;
40635;SDS011;26642;55.766;37.828;2022-09-09T03:08:15;1.63;;;1.20;;
40635;SDS011;26642;55.766;37.828;2022-09-09T03:10:43;2.13;;;1.60;;
40635;SDS011;26642;55.766;37.828;2022-09-09T03:13:11;1.85;;;1.50;;
40635;SDS011;26642;55.766;37.828;2022-09-09T03:15:40;2.10;;;1.75;;
40635;SDS011;26642;55.766;37.828;2022-09-09T03:18:11;3.72;;;1.88;;
40635;SDS011;26642;55.766;37.828;2022-09-09T03:20:37;2.85;;;1.67;;
40635;SDS011;26642;55.766;37.828;2022-09-09T03:23:02;2.25;;;1.73;;
40635;SDS011;26642;55.766;37.828;2022-09-09T03:25:29;3.58;;;1.20;;
40635;SDS011;26642;55.766;37.828;2022-09-09T03:27:55;1.60;;;1.35;;
40635;SDS011;26642;55.766;37.828;2022-09-09T03:30:24;1.67;;;1.48;;
40635;SDS011;26642;55.766;37.828;2022-09-09T03:32:53;1.70;;;1.23;;
40635;SDS011;26642;55.766;37.828;2022-09-09T03:35:21;1.52;;;1.38;;
40635;SDS011;26642;55.766;37.828;2022-09-09T03:37:47;2.03;;;1.52;;
40635;SDS011;26642;55.766;37.828;2022-09-09T03:40:15;2.00;;;1.50;;
40635;SDS011;26642;55.766;37.828;2022-09-09T03:42:44;2.42;;;1.70;;
40635;SDS011;26642;55.766;37.828;2022-09-09T03:45:10;2.70;;;1.30;;
40635;SDS011;26642;55.766;37.828;2022-09-09T03:47:38;1.67;;;1.48;;
40635;SDS011;26642;55.766;37.828;2022-09-09T03:50:06;2.90;;;1.38;;
40635;SDS011;26642;55.766;37.828;2022-09-09T03:52:38;3.60;;;1.55;;
40635;SDS011;26642;55.766;37.828;2022-09-09T03:55:12;3.75;;;1.20;;
40635;SDS011;26642;55.766;37.828;2022-09-09T03:57:37;3.13;;;1.35;;
40635;SDS011;26642;55.766;37.828;2022-09-09T04:00:07;4.30;;;1.45;;
40635;SDS011;26642;55.766;37.828;2022-09-09T04:02:47;3.45;;;1.70;;
40635;SDS011;26642;55.766;37.828;2022-09-09T04:05:15;2.65;;;1.63;;
40635;SDS011;26642;55.766;37.828;2022-09-09T04:07:43;1.83;;;1.30;;
40635;SDS011;26642;55.766;37.828;2022-09-09T04:10:09;2.10;;;1.73;;
40635;SDS011;26642;55.766;37.828;2022-09-09T04:12:37;1.50;;;1.40;;
40635;SDS011;26642;55.766;37.828;2022-09-09T04:15:03;4.10;;;1.45;;
40635;SDS011;26642;55.766;37.828;2022-09-09T04:17:30;3.70;;;1.60;;
40635;SDS011;26642;55.766;37.828;2022-09-09T04:19:57;4.75;;;1.73;;
40635;SDS011;26642;55.766;37.828;2022-09-09T04:22:23;3.40;;;1.80;;
40635;SDS011;26642;55.766;37.828;2022-09-09T04:27:34;4.72;;;1.60;;
40635;SDS011;26642;55.766;37.828;2022-09-09T04:30:00;1.73;;;1.42;;
40635;SDS011;26642;55.766;37.828;2022-09-09T04:32:31;1.50;;;1.40;;
40635;SDS011;26642;55.766;37.828;2022-09-09T04:34:58;3.05;;;1.33;;
40635;SDS011;26642;55.766;37.828;2022-09-09T04:37:24;1.50;;;1.40;;
40635;SDS011;26642;55.766;37.828;2022-09-09T04:39:51;5.95;;;1.90;;
40635;SDS011;26642;55.766;37.828;2022-09-09T04:42:17;2.00;;;1.60;;
40635;SDS011;26642;55.766;37.828;2022-09-09T04:44:45;4.55;;;1.70;;
40635;SDS011;26642;55.766;37.828;2022-09-09T04:47:11;3.53;;;1.83;;
40635;SDS011;26642;55.766;37.828;2022-09-09T04:49:38;2.17;;;1.45;;
40635;SDS011;26642;55.766;37.828;2022-09-09T04:52:05;3.55;;;1.85;;
40635;SDS011;26642;55.766;37.828;2022-09-09T04:54:33;1.98;;;1.80;;
40635;SDS011;26642;55.766;37.828;2022-09-09T04:56:59;1.55;;;1.40;;
40635;SDS011;26642;55.766;37.828;2022-09-09T04:59:25;1.73;;;1.60;;
40635;SDS011;26642;55.766;37.828;2022-09-09T05:01:54;2.13;;;1.48;;
40635;SDS011;26642;55.766;37.828;2022-09-09T05:04:21;2.03;;;1.50;;
40635;SDS011;26642;55.766;37.828;2022-09-09T05:06:47;1.90;;;1.38;;
40635;SDS011;26642;55.766;37.828;2022-09-09T05:09:13;2.03;;;1.52;;
40635;SDS011;26642;55.766;37.828;2022-09-09T05:11:39;2.20;;;1.60;;
40635;SDS011;26642;55.766;37.828;2022-09-09T05:14:10;2.22;;;1.35;;
40635;SDS011;26642;55.766;37.828;2022-09-09T05:16:37;1.42;;;1.15;;
40635;SDS011;26642;55.766;37.828;2022-09-09T05:19:03;2.78;;;1.40;;
40635;SDS011;26642;55.766;37.828;2022-09-09T05:21:40;3.00;;;1.30;;
40635;SDS011;26642;55.766;37.828;2022-09-09T05:24:07;1.42;;;0.98;;
40635;SDS011;26642;55.766;37.828;2022-09-09T05:26:33;1.88;;;1.27;;
40635;SDS011;26642;55.766;37.828;2022-09-09T05:29:02;2.53;;;1.00;;
40635;SDS011;26642;55.766;37.828;2022-09-09T05:31:29;3.00;;;1.25;;
40635;SDS011;26642;55.766;37.828;2022-09-09T05:33:58;1.38;;;1.00;;
40635;SDS011;26642;55.766;37.828;2022-09-09T05:36:24;1.77;;;0.98;;
40635;SDS011;26642;55.766;37.828;2022-09-09T05:38:54;1.25;;;0.90;;
40635;SDS011;26642;55.766;37.828;2022-09-09T05:41:20;0.88;;;0.73;;
40635;SDS011;26642;55.766;37.828;2022-09-09T05:43:48;1.10;;;0.82;;
40635;SDS011;26642;55.766;37.828;2022-09-09T05:46:19;1.48;;;1.00;;
40635;SDS011;26642;55.766;37.828;2022-09-09T05:48:49;1.52;;;0.77;;
40635;SDS011;26642;55.766;37.828;2022-09-09T05:51:19;1.00;;;0.70;;
40635;SDS011;26642;55.766;37.828;2022-09-09T05:53:47;0.70;;;0.70;;
40635;SDS011;26642;55.766;37.828;2022-09-09T05:56:14;0.63;;;0.50;;
40635;SDS011;26642;55.766;37.828;2022-09-09T05:58:43;0.75;;;0.40;;
40635;SDS011;26642;55.766;37.828;2022-09-09T06:01:12;0.63;;;0.60;;
40635;SDS011;26642;55.766;37.828;2022-09-09T06:03:41;0.35;;;0.35;;
40635;SDS011;26642;55.766;37.828;2022-09-09T06:06:13;3.55;;;0.70;;
40635;SDS011;26642;55.766;37.828;2022-09-09T06:08:41;0.93;;;0.45;;
40635;SDS011;26642;55.766;37.828;2022-09-09T06:11:17;0.60;;;0.43;;
40635;SDS011;26642;55.766;37.828;2022-09-09T06:13:48;1.60;;;0.50;;
40635;SDS011;26642;55.766;37.828;2022-09-09T06:16:17;0.50;;;0.50;;
40635;SDS011;26642;55.766;37.828;2022-09-09T06:18:44;0.40;;;0.25;;
40635;SDS011;26642;55.766;37.828;2022-09-09T06:24:06;0.77;;;0.30;;
40635;SDS011;26642;55.766;37.828;2022-09-09T06:26:37;0.43;;;0.40;;
40635;SDS011;26642;55.766;37.828;2022-09-09T06:29:08;0.77;;;0.50;;
40635;SDS011;26642;55.766;37.828;2022-09-09T06:31:34;1.10;;;0.60;;
40635;SDS011;26642;55.766;37.828;2022-09-09T06:34:20;1.42;;;0.60;;
40635;SDS011;26642;55.766;37.828;2022-09-09T06:36:49;1.38;;;0.50;;
40635;SDS011;26642;55.766;37.828;2022-09-09T06:39:17;1.35;;;0.70;;
40635;SDS011;26642;55.766;37.828;2022-09-09T06:41:44;2.40;;;0.70;;
40635;SDS011;26642;55.766;37.828;2022-09-09T06:44:45;0.50;;;0.43;;
40635;SDS011;26642;55.766;37.828;2022-09-09T06:47:17;4.22;;;0.75;;
40635;SDS011;26642;55.766;37.828;2022-09-09T06:49:45;3.35;;;0.77;;
40635;SDS011;26642;55.766;37.828;2022-09-09T06:52:11;2.72;;;0.40;;
40635;SDS011;26642;55.766;37.828;2022-09-09T06:54:37;5.18;;;0.60;;
40635;SDS011;26642;55.766;37.828;2022-09-09T06:57:04;3.58;;;0.40;;
40635;SDS011;26642;55.766;37.828;2022-09-09T06:59:33;2.60;;;0.45;;
40635;SDS011;26642;55.766;37.828;2022-09-09T07:01:59;0.70;;;0.47;;
40635;SDS011;26642;55.766;37.828;2022-09-09T07:04:28;1.08;;;0.50;;
40635;SDS011;26642;55.766;37.828;2022-09-09T07:06:53;2.22;;;0.55;;
40635;SDS011;26642;55.766;37.828;2022-09-09T07:09:23;2.38;;;0.50;;
40635;SDS011;26642;55.766;37.828;2022-09-09T07:11:51;1.85;;;0.60;;
40635;SDS011;26642;55.766;37.828;2022-09-09T07:14:22;5.45;;;0.90;;
40635;SDS011;26642;55.766;37.828;2022-09-09T07:16:53;1.52;;;0.55;;
40635;SDS011;26642;55.766;37.828;2022-09-09T07:19:26;2.50;;;0.82;;
40635;SDS011;26642;55.766;37.828;2022-09-09T07:21:53;1.98;;;0.95;;
40635;SDS011;26642;55.766;37.828;2022-09-09T07:24:21;2.90;;;0.80;;
40635;SDS011;26642;55.766;37.828;2022-09-09T07:26:48;0.80;;;0.73;;
40635;SDS011;26642;55.766;37.828;2022-09-09T07:29:14;1.60;;;0.60;;
40635;SDS011;26642;55.766;37.828;2022-09-09T07:31:41;1.60;;;0.60;;
40635;SDS011;26642;55.766;37.828;2022-09-09T07:34:12;1.35;;;0.63;;
40635;SDS011;26642;55.766;37.828;2022-09-09T07:36:39;1.00;;;0.50;;
40635;SDS011;26642;55.766;37.828;2022-09-09T07:39:08;0.65;;;0.47;;
40635;SDS011;26642;55.766;37.828;2022-09-09T07:41:37;1.17;;;0.60;;
40635;SDS011;26642;55.766;37.828;2022-09-09T07:44:07;1.52;;;0.40;;
40635;SDS011;26642;55.766;37.828;2022-09-09T07:46:40;0.15;;;0.15;;
40635;SDS011;26642;55.766;37.828;2022-09-09T07:49:08;0.30;;;0.30;;
40635;SDS011;26642;55.766;37.828;2022-09-09T07:51:40;0.45;;;0.28;;
40635;SDS011;26642;55.766;37.828;2022-09-09T07:54:13;1.58;;;0.47;;
40635;SDS011;26642;55.766;37.828;2022-09-09T07:56:43;0.57;;;0.30;;
40635;SDS011;26642;55.766;37.828;2022-09-09T07:59:11;1.58;;;0.50;;
40635;SDS011;26642;55.766;37.828;2022-09-09T08:01:41;1.45;;;0.40;;
40635;SDS011;26642;55.766;37.828;2022-09-09T08:04:18;0.40;;;0.32;;
40635;SDS011;26642;55.766;37.828;2022-09-09T08:06:50;1.17;;;0.57;;
40635;SDS011;26642;55.766;37.828;2022-09-09T08:09:23;1.17;;;0.57;;
40635;SDS011;26642;55.766;37.828;2022-09-09T08:11:53;1.95;;;0.60;;
40635;SDS011;26642;55.766;37.828;2022-09-09T08:14:19;0.85;;;0.65;;
40635;SDS011;26642;55.766;37.828;2022-09-09T08:16:47;3.47;;;0.57;;
40635;SDS011;26642;55.766;37.828;2022-09-09T08:19:20;0.60;;;0.60;;
40635;SDS011;26642;55.766;37.828;2022-09-09T08:21:47;1.40;;;0.55;;
40635;SDS011;26642;55.766;37.828;2022-09-09T08:24:18;1.42;;;0.40;;
40635;SDS011;26642;55.766;37.828;2022-09-09T08:26:48;0.40;;;0.30;;
40635;SDS011;26642;55.766;37.828;2022-09-09T08:29:16;0.85;;;0.40;;
40635;SDS011;26642;55.766;37.828;2022-09-09T08:31:45;0.73;;;0.50;;
40635;SDS011;26642;55.766;37.828;2022-09-09T08:34:14;0.88;;;0.43;;
40635;SDS011;26642;55.766;37.828;2022-09-09T08:36:41;1.60;;;0.52;;
40635;SDS011;26642;55.766;37.828;2022-09-09T08:39:11;2.72;;;0.70;;
40635;SDS011;26642;55.766;37.828;2022-09-09T08:54:41;1.23;;;0.75;;
40635;SDS011;26642;55.766;37.828;2022-09-09T08:57:11;0.95;;;0.57;;
40635;SDS011;26642;55.766;37.828;2022-09-09T08:59:43;0.98;;;0.60;;
40635;SDS011;26642;55.766;37.828;2022-09-09T09:05:27;1.90;;;0.47;;
40635;SDS011;26642;55.766;37.828;2022-09-09T09:10:53;0.40;;;0.40;;
40635;SDS011;26642;55.766;37.828;2022-09-09T09:13:33;1.25;;;0.60;;
40635;SDS011;26642;55.766;37.828;2022-09-09T09:16:10;0.73;;;0.68;;
40635;SDS011;26642;55.766;37.828;2022-09-09T09:18:50;0.63;;;0.50;;
40635;SDS011;26642;55.766;37.828;2022-09-09T09:21:25;1.63;;;0.50;;
40635;SDS011;26642;55.766;37.828;2022-09-09T09:24:06;0.65;;;0.30;;
40635;SDS011;26642;55.766;37.828;2022-09-09T09:26:41;0.95;;;0.60;;
40635;SDS011;26642;55.766;37.828;2022-09-09T09:29:13;1.52;;;0.73;;
40635;SDS011;26642;55.766;37.828;2022-09-09T09:31:57;1.20;;;0.60;;
40635;SDS011;26642;55.766;37.828;2022-09-09T09:34:28;0.40;;;0.40;;
40635;SDS011;26642;55.766;37.828;2022-09-09T09:36:56;0.50;;;0.50;;
40635;SDS011;26642;55.766;37.828;2022-09-09T09:39:30;0.63;;;0.50;;
40635;SDS011;26642;55.766;37.828;2022-09-09T09:42:10;1.40;;;0.50;;
40635;SDS011;26642;55.766;37.828;2022-09-09T09:44:43;0.98;;;0.60;;
40635;SDS011;26642;55.766;37.828;2022-09-09T09:47:20;0.45;;;0.30;;
40635;SDS011;26642;55.766;37.828;2022-09-09T09:50:16;0.85;;;0.60;;
40635;SDS011;26642;55.766;37.828;2022-09-09T09:52:52;0.70;;;0.70;;
40635;SDS011;26642;55.766;37.828;2022-09-09T09:55:30;0.80;;;0.57;;
40635;SDS011;26642;55.766;37.828;2022-09-09T09:58:05;0.80;;;0.40;;
40635;SDS011;26642;55.766;37.828;2022-09-09T10:00:33;1.40;;;0.32;;
40635;SDS011;26642;55.766;37.828;2022-09-09T10:03:40;1.52;;;0.35;;
40635;SDS011;26642;55.766;37.828;2022-09-09T10:06:06;3.70;;;0.50;;
40635;SDS011;26642;55.766;37.828;2022-09-09T10:08:33;0.80;;;0.43;;
40635;SDS011;26642;55.766;37.828;2022-09-09T10:20:00;0.20;;;0.20;;
40635;SDS011;26642;55.766;37.828;2022-09-09T10:22:52;0.85;;;0.35;;
40635;SDS011;26642;55.766;37.828;2022-09-09T10:31:15;0.52;;;0.47;;
40635;SDS011;26642;55.766;37.828;2022-09-09T10:36:37;1.83;;;0.50;;
40635;SDS011;26642;55.766;37.828;2022-09-09T10:42:14;2.80;;;0.47;;
40635;SDS011;26642;55.766;37.828;2022-09-09T10:50:28;0.75;;;0.50;;
40635;SDS011;26642;55.766;37.828;2022-09-09T10:55:51;1.20;;;0.30;;
40635;SDS011;26642;55.766;37.828;2022-09-09T10:58:23;2.40;;;0.35;;
40635;SDS011;26642;55.766;37.828;2022-09-09T11:01:01;1.02;;;0.60;;
40635;SDS011;26642;55.766;37.828;2022-09-09T11:03:37;0.80;;;0.50;;
40635;SDS011;26642;55.766;37.828;2022-09-09T11:06:09;1.48;;;0.60;;
40635;SDS011;26642;55.766;37.828;2022-09-09T11:08:39;0.70;;;0.45;;
40635;SDS011;26642;55.766;37.828;2022-09-09T11:16:20;0.85;;;0.40;;
40635;SDS011;26642;55.766;37.828;2022-09-09T11:18:48;0.93;;;0.43;;
40635;SDS011;26642;55.766;37.828;2022-09-09T11:21:23;1.35;;;0.82;;
40635;SDS011;26642;55.766;37.828;2022-09-09T11:23:56;0.60;;;0.50;;
40635;SDS011;26642;55.766;37.828;2022-09-09T11:26:37;1.35;;;0.57;;
40635;SDS011;26642;55.766;37.828;2022-09-09T11:37:33;1.13;;;0.60;;
40635;SDS011;26642;55.766;37.828;2022-09-09T11:42:46;2.20;;;0.65;;
40635;SDS011;26642;55.766;37.828;2022-09-09T11:45:20;0.73;;;0.32;;
40635;SDS011;26642;55.766;37.828;2022-09-09T11:47:54;2.35;;;0.20;;
40635;SDS011;26642;55.766;37.828;2022-09-09T11:53:02;1.45;;;0.38;;
40635;SDS011;26642;55.766;37.828;2022-09-09T11:55:39;0.35;;;0.30;;
40635;SDS011;26642;55.766;37.828;2022-09-09T11:58:06;0.43;;;0.40;;
40635;SDS011;26642;55.766;37.828;2022-09-09T12:06:07;0.98;;;0.45;;
40635;SDS011;26642;55.766;37.828;2022-09-09T12:08:41;0.65;;;0.40;;
40635;SDS011;26642;55.766;37.828;2022-09-09T12:11:10;0.82;;;0.40;;
40635;SDS011;26642;55.766;37.828;2022-09-09T12:13:36;0.63;;;0.43;;
40635;SDS011;26642;55.766;37.828;2022-09-09T12:16:03;2.10;;;0.50;;
40635;SDS011;26642;55.766;37.828;2022-09-09T12:18:37;0.60;;;0.60;;
40635;SDS011;26642;55.766;37.828;2022-09-09T12:24:26;0.82;;;0.30;;
40635;SDS011;26642;55.766;37.828;2022-09-09T12:29:55;1.63;;;0.35;;
40635;SDS011;26642;55.766;37.828;2022-09-09T12:32:35;0.73;;;0.40;;
40635;SDS011;26642;55.766;37.828;2022-09-09T12:35:03;2.15;;;0.50;;
40635;SDS011;26642;55.766;37.828;2022-09-09T12:40:04;1.58;;;0.30;;
40635;SDS011;26642;55.766;37.828;2022-09-09T12:42:43;1.35;;;0.30;;
40635;SDS011;26642;55.766;37.828;2022-09-09T12:45:16;0.30;;;0.30;;
40635;SDS011;26642;55.766;37.828;2022-09-09T12:47:54;1.67;;;0.40;;
40635;SDS011;26642;55.766;37.828;2022-09-09T12:50:36;1.20;;;0.57;;
40635;SDS011;26642;55.766;37.828;2022-09-09T12:55:50;1.20;;;0.35;;
40635;SDS011;26642;55.766;37.828;2022-09-09T13:03:18;1.50;;;0.60;;
40635;SDS011;26642;55.766;37.828;2022-09-09T13:05:50;0.85;;;0.50;;
40635;SDS011;26642;55.766;37.828;2022-09-09T13:08:16;1.63;;;0.60;;
40635;SDS011;26642;55.766;37.828;2022-09-09T13:11:08;1.10;;;0.47;;
40635;SDS011;26642;55.766;37.828;2022-09-09T13:13:38;0.30;;;0.30;;
40635;SDS011;26642;55.766;37.828;2022-09-09T13:16:07;1.30;;;0.68;;
40635;SDS011;26642;55.766;37.828;2022-09-09T13:18:55;2.50;;;0.98;;
40635;SDS011;26642;55.766;37.828;2022-09-09T13:21:32;0.70;;;0.55;;
40635;SDS011;26642;55.766;37.828;2022-09-09T13:24:03;1.73;;;0.70;;
40635;SDS011;26642;55.766;37.828;2022-09-09T13:26:55;0.63;;;0.40;;
40635;SDS011;26642;55.766;37.828;2022-09-09T13:29:21;0.85;;;0.60;;
40635;SDS011;26642;55.766;37.828;2022-09-09T13:31:48;0.70;;;0.60;;
40635;SDS011;26642;55.766;37.828;2022-09-09T13:34:31;1.75;;;0.68;;
40635;SDS011;26642;55.766;37.828;2022-09-09T13:37:05;0.75;;;0.60;;
40635;SDS011;26642;55.766;37.828;2022-09-09T13:39:32;0.70;;;0.70;;
40635;SDS011;26642;55.766;37.828;2022-09-09T13:42:01;3.60;;;0.70;;
40635;SDS011;26642;55.766;37.828;2022-09-09T13:44:29;1.33;;;0.60;;
40635;SDS011;26642;55.766;37.828;2022-09-09T13:47:21;1.48;;;0.73;;
40635;SDS011;26642;55.766;37.828;2022-09-09T13:49:48;3.50;;;0.65;;
40635;SDS011;26642;55.766;37.828;2022-09-09T13:52:15;1.50;;;0.80;;
40635;SDS011;26642;55.766;37.828;2022-09-09T13:54:46;1.25;;;0.70;;
40635;SDS011;26642;55.766;37.828;2022-09-09T13:57:15;1.52;;;0.73;;
40635;SDS011;26642;55.766;37.828;2022-09-09T13:59:43;1.33;;;0.52;;
40635;SDS011;26642;55.766;37.828;2022-09-09T14:02:10;0.55;;;0.55;;
40635;SDS011;26642;55.766;37.828;2022-09-09T14:04:36;0.85;;;0.50;;
40635;SDS011;26642;55.766;37.828;2022-09-09T14:07:02;2.05;;;0.65;;
40635;SDS011;26642;55.766;37.828;2022-09-09T14:09:28;1.15;;;0.77;;
40635;SDS011;26642;55.766;37.828;2022-09-09T14:11:54;1.40;;;0.70;;
40635;SDS011;26642;55.766;37.828;2022-09-09T14:14:20;0.95;;;0.70;;
40635;SDS011;26642;55.766;37.828;2022-09-09T14:16:46;1.63;;;0.50;;
40635;SDS011;26642;55.766;37.828;2022-09-09T14:19:12;2.55;;;1.02;;
40635;SDS011;26642;55.766;37.828;2022-09-09T14:21:38;1.35;;;0.60;;
40635;SDS011;26642;55.766;37.828;2022-09-09T14:24:04;2.78;;;0.80;;
40635;SDS011;26642;55.766;37.828;2022-09-09T14:26:31;0.90;;;0.70;;
40635;SDS011;26642;55.766;37.828;2022-09-09T14:28:57;1.08;;;0.60;;
40635;SDS011;26642;55.766;37.828;2022-09-09T14:31:24;1.23;;;0.70;;
40635;SDS011;26642;55.766;37.828;2022-09-09T14:33:50;0.90;;;0.80;;
40635;SDS011;26642;55.766;37.828;2022-09-09T14:36:17;1.77;;;0.90;;
40635;SDS011;26642;55.766;37.828;2022-09-09T14:38:43;1.02;;;0.63;;
40635;SDS011;26642;55.766;37.828;2022-09-09T14:41:13;1.52;;;0.93;;
40635;SDS011;26642;55.766;37.828;2022-09-09T14:43:45;1.60;;;0.73;;
40635;SDS011;26642;55.766;37.828;2022-09-09T14:46:12;2.08;;;1.02;;
40635;SDS011;26642;55.766;37.828;2022-09-09T14:48:40;1.35;;;0.90;;
40635;SDS011;26642;55.766;37.828;2022-09-09T14:51:10;1.77;;;0.80;;
40635;SDS011;26642;55.766;37.828;2022-09-09T14:53:38;1.10;;;1.00;;
40635;SDS011;26642;55.766;37.828;2022-09-09T14:56:06;1.90;;;0.90;;
40635;SDS011;26642;55.766;37.828;2022-09-09T14:58:36;1.65;;;0.80;;
40635;SDS011;26642;55.766;37.828;2022-09-09T15:01:07;2.63;;;0.80;;
40635;SDS011;26642;55.766;37.828;2022-09-09T15:03:36;1.13;;;0.82;;
40635;SDS011;26642;55.766;37.828;2022-09-09T15:06:10;4.15;;;1.15;;
40635;SDS011;26642;55.766;37.828;2022-09-09T15:08:40;2.25;;;1.00;;
40635;SDS011;26642;55.766;37.828;2022-09-09T15:11:07;2.03;;;1.08;;
40635;SDS011;26642;55.766;37.828;2022-09-09T15:13:34;4.00;;;1.35;;
40635;SDS011;26642;55.766;37.828;2022-09-09T15:16:05;2.63;;;1.13;;
40635;SDS011;26642;55.766;37.828;2022-09-09T15:18:33;2.30;;;0.90;;
40635;SDS011;26642;55.766;37.828;2022-09-09T15:21:02;1.67;;;1.00;;
40635;SDS011;26642;55.766;37.828;2022-09-09T15:23:33;2.20;;;1.10;;
40635;SDS011;26642;55.766;37.828;2022-09-09T15:26:00;3.22;;;1.30;;
40635;SDS011;26642;55.766;37.828;2022-09-09T15:28:27;1.50;;;1.20;;
40635;SDS011;26642;55.766;37.828;2022-09-09T15:30:54;1.77;;;1.40;;
40635;SDS011;26642;55.766;37.828;2022-09-09T15:33:20;3.13;;;1.38;;
40635;SDS011;26642;55.766;37.828;2022-09-09T15:35:47;3.25;;;1.50;;
40635;SDS011;26642;55.766;37.828;2022-09-09T15:38:15;2.00;;;1.20;;
40635;SDS011;26642;55.766;37.828;2022-09-09T15:40:42;1.77;;;1.17;;
40635;SDS011;26642;55.766;37.828;2022-09-09T15:43:09;4.05;;;1.30;;
40635;SDS011;26642;55.766;37.828;2022-09-09T15:45:36;6.47;;;1.73;;
40635;SDS011;26642;55.766;37.828;2022-09-09T15:48:03;4.18;;;1.20;;
40635;SDS011;26642;55.766;37.828;2022-09-09T15:50:29;4.47;;;1.30;;
40635;SDS011;26642;55.766;37.828;2022-09-09T15:52:58;2.85;;;1.05;;
40635;SDS011;26642;55.766;37.828;2022-09-09T15:55:24;3.83;;;1.60;;
40635;SDS011;26642;55.766;37.828;2022-09-09T15:57:50;3.63;;;1.55;;
40635;SDS011;26642;55.766;37.828;2022-09-09T16:00:18;3.50;;;1.70;;
40635;SDS011;26642;55.766;37.828;2022-09-09T16:02:46;4.25;;;1.92;;
40635;SDS011;26642;55.766;37.828;2022-09-09T16:05:12;5.95;;;1.60;;
40635;SDS011;26642;55.766;37.828;2022-09-09T16:07:39;3.95;;;1.55;;
40635;SDS011;26642;55.766;37.828;2022-09-09T16:10:08;5.40;;;2.08;;
40635;SDS011;26642;55.766;37.828;2022-09-09T16:12:34;5.88;;;2.25;;
40635;SDS011;26642;55.766;37.828;2022-09-09T16:15:00;4.38;;;2.10;;
40635;SDS011;26642;55.766;37.828;2022-09-09T16:17:26;8.18;;;2.72;;
40635;SDS011;26642;55.766;37.828;2022-09-09T16:19:52;6.63;;;3.15;;
40635;SDS011;26642;55.766;37.828;2022-09-09T16:22:19;6.47;;;3.75;;
40635;SDS011;26642;55.766;37.828;2022-09-09T16:24:45;5.72;;;3.78;;
40635;SDS011;26642;55.766;37.828;2022-09-09T16:27:11;8.57;;;4.10;;
40635;SDS011;26642;55.766;37.828;2022-09-09T16:29:37;11.70;;;5.65;;
40635;SDS011;26642;55.766;37.828;2022-09-09T16:32:04;11.15;;;6.38;;
40635;SDS011;26642;55.766;37.828;2022-09-09T16:34:30;12.20;;;7.35;;
40635;SDS011;26642;55.766;37.828;2022-09-09T16:36:56;25.10;;;7.90;;
40635;SDS011;26642;55.766;37.828;2022-09-09T16:39:22;14.38;;;7.35;;
40635;SDS011;26642;55.766;37.828;2022-09-09T16:41:48;14.02;;;7.82;;
40635;SDS011;26642;55.766;37.828;2022-09-09T16:44:15;14.13;;;7.72;;
40635;SDS011;26642;55.766;37.828;2022-09-09T16:46:44;12.98;;;7.78;;
40635;SDS011;26642;55.766;37.828;2022-09-09T16:49:12;15.75;;;8.20;;
40635;SDS011;26642;55.766;37.828;2022-09-09T16:51:39;12.45;;;7.63;;
40635;SDS011;26642;55.766;37.828;2022-09-09T16:54:07;10.63;;;7.03;;
40635;SDS011;26642;55.766;37.828;2022-09-09T16:56:38;12.15;;;6.90;;
40635;SDS011;26642;55.766;37.828;2022-09-09T16:59:12;7.13;;;5.00;;
40635;SDS011;26642;55.766;37.828;2022-09-09T17:01:46;9.20;;;4.95;;